sensor_id;sensor_type;location;lat;lon;timestamp;pressure;altitude;pressure_sealevel;temperature;humidity
40850;BME280;26571;41.610;25.380;2023-09-18T00:01:37;98805.47;;;20.64;80.86
40850;BME280;26571;41.610;25.380;2023-09-18T00:04:05;98806.06;;;20.67;81.14
40850;BME280;26571;41.610;25.380;2023-09-18T00:06:30;98805.78;;;20.75;80.57
40850;BME280;26571;41.610;25.380;2023-09-18T00:08:56;98799.38;;;20.76;80.71
40850;BME280;26571;41.610;25.380;2023-09-18T00:11:21;98804.06;;;20.80;79.99
40850;BME280;26571;41.610;25.380;2023-09-18T00:13:47;98801.91;;;20.71;80.51
40850;BME280;26571;41.610;25.380;2023-09-18T00:16:12;98807.09;;;20.65;81.18
40850;BME280;26571;41.610;25.380;2023-09-18T00:18:38;98784.50;;;20.61;80.39
40850;BME280;26571;41.610;25.380;2023-09-18T00:21:04;98797.00;;;20.68;80.97
40850;BME280;26571;41.610;25.380;2023-09-18T00:23:29;98808.88;;;20.72;80.59
40850;BME280;26571;41.610;25.380;2023-09-18T00:25:55;98805.94;;;20.80;79.67
40850;BME280;26571;41.610;25.380;2023-09-18T00:28:20;98810.53;;;20.73;80.28
40850;BME280;26571;41.610;25.380;2023-09-18T00:30:50;98800.28;;;20.70;80.64
40850;BME280;26571;41.610;25.380;2023-09-18T00:33:16;98804.00;;;20.69;80.80
40850;BME280;26571;41.610;25.380;2023-09-18T00:35:49;98802.97;;;20.70;80.47
40850;BME280;26571;41.610;25.380;2023-09-18T00:38:15;98768.41;;;20.43;81.03
40850;BME280;26571;41.610;25.380;2023-09-18T00:40:40;98797.59;;;20.70;80.85
40850;BME280;26571;41.610;25.380;2023-09-18T00:43:06;98797.91;;;20.80;80.09
40850;BME280;26571;41.610;25.380;2023-09-18T00:45:32;98801.53;;;20.67;80.90
40850;BME280;26571;41.610;25.380;2023-09-18T00:47:57;98797.47;;;20.64;81.20
40850;BME280;26571;41.610;25.380;2023-09-18T00:50:23;98798.47;;;20.63;81.30
40850;BME280;26571;41.610;25.380;2023-09-18T00:52:49;98801.75;;;20.65;81.57
40850;BME280;26571;41.610;25.380;2023-09-18T00:55:15;98794.97;;;20.63;81.58
40850;BME280;26571;41.610;25.380;2023-09-18T00:57:42;98800.41;;;20.56;82.12
40850;BME280;26571;41.610;25.380;2023-09-18T01:00:08;98790.44;;;20.63;82.32
40850;BME280;26571;41.610;25.380;2023-09-18T01:02:34;98791.72;;;20.61;82.67
40850;BME280;26571;41.610;25.380;2023-09-18T01:05:00;98791.50;;;20.62;82.93
40850;BME280;26571;41.610;25.380;2023-09-18T01:07:26;98786.59;;;20.59;82.85
40850;BME280;26571;41.610;25.380;2023-09-18T01:09:53;98784.09;;;20.64;82.87
40850;BME280;26571;41.610;25.380;2023-09-18T01:12:30;98780.13;;;20.67;82.84
40850;BME280;26571;41.610;25.380;2023-09-18T01:15:02;98770.69;;;20.64;83.22
40850;BME280;26571;41.610;25.380;2023-09-18T01:17:35;98773.22;;;20.59;83.27
40850;BME280;26571;41.610;25.380;2023-09-18T01:20:04;98770.31;;;20.61;83.18
40850;BME280;26571;41.610;25.380;2023-09-18T01:22:31;98767.50;;;20.56;83.42
40850;BME280;26571;41.610;25.380;2023-09-18T01:24:57;98766.91;;;20.54;83.50
40850;BME280;26571;41.610;25.380;2023-09-18T01:27:22;98763.69;;;20.63;82.74
40850;BME280;26571;41.610;25.380;2023-09-18T01:29:48;98747.34;;;20.53;82.54
40850;BME280;26571;41.610;25.380;2023-09-18T01:32:14;98765.28;;;20.71;81.93
40850;BME280;26571;41.610;25.380;2023-09-18T01:34:47;98733.81;;;20.48;82.59
40850;BME280;26571;41.610;25.380;2023-09-18T01:37:15;98760.44;;;20.61;82.56
40850;BME280;26571;41.610;25.380;2023-09-18T01:39:42;98760.44;;;20.61;82.63
40850;BME280;26571;41.610;25.380;2023-09-18T01:42:07;98757.53;;;20.63;82.31
40850;BME280;26571;41.610;25.380;2023-09-18T01:44:36;98746.75;;;20.51;82.02
40850;BME280;26571;41.610;25.380;2023-09-18T01:47:10;98766.53;;;20.69;82.18
40850;BME280;26571;41.610;25.380;2023-09-18T01:49:37;98776.78;;;20.72;81.79
40850;BME280;26571;41.610;25.380;2023-09-18T01:52:04;98763.69;;;20.63;81.93
40850;BME280;26571;41.610;25.380;2023-09-18T01:54:30;98773.06;;;20.73;81.54
40850;BME280;26571;41.610;25.380;2023-09-18T01:56:56;98742.91;;;20.47;81.40
40850;BME280;26571;41.610;25.380;2023-09-18T01:59:22;98772.75;;;20.62;81.71
40850;BME280;26571;41.610;25.380;2023-09-18T02:01:48;98763.78;;;20.57;81.56
40850;BME280;26571;41.610;25.380;2023-09-18T02:04:14;98770.69;;;20.64;81.34
40850;BME280;26571;41.610;25.380;2023-09-18T02:06:39;98765.34;;;20.64;81.06
40850;BME280;26571;41.610;25.380;2023-09-18T02:09:05;98768.63;;;20.67;81.00
40850;BME280;26571;41.610;25.380;2023-09-18T02:11:33;98768.63;;;20.67;81.00
40850;BME280;26571;41.610;25.380;2023-09-18T02:13:59;98770.47;;;20.66;81.08
40850;BME280;26571;41.610;25.380;2023-09-18T02:16:24;98759.63;;;20.61;81.26
40850;BME280;26571;41.610;25.380;2023-09-18T02:18:54;98763.34;;;20.60;81.26
40850;BME280;26571;41.610;25.380;2023-09-18T02:21:20;98760.88;;;20.58;81.14
40850;BME280;26571;41.610;25.380;2023-09-18T02:23:49;98767.06;;;20.59;81.00
40850;BME280;26571;41.610;25.380;2023-09-18T02:26:15;98763.41;;;20.53;80.98
40850;BME280;26571;41.610;25.380;2023-09-18T02:28:41;98767.88;;;20.59;81.04
40850;BME280;26571;41.610;25.380;2023-09-18T02:31:06;98776.09;;;20.58;81.57
40850;BME280;26571;41.610;25.380;2023-09-18T02:33:33;98763.94;;;20.62;81.61
40850;BME280;26571;41.610;25.380;2023-09-18T02:35:58;98770.84;;;20.51;82.30
40850;BME280;26571;41.610;25.380;2023-09-18T02:38:24;98734.75;;;20.17;83.21
40850;BME280;26571;41.610;25.380;2023-09-18T02:40:49;98768.25;;;20.38;83.47
40850;BME280;26571;41.610;25.380;2023-09-18T02:43:15;98764.25;;;20.29;84.01
40850;BME280;26571;41.610;25.380;2023-09-18T02:45:40;98765.34;;;20.21;84.30
40850;BME280;26571;41.610;25.380;2023-09-18T02:48:06;98776.28;;;20.38;84.33
40850;BME280;26571;41.610;25.380;2023-09-18T02:50:31;98779.63;;;20.33;84.46
40850;BME280;26571;41.610;25.380;2023-09-18T02:52:57;98773.91;;;20.30;84.49
40850;BME280;26571;41.610;25.380;2023-09-18T02:55:22;98772.06;;;20.30;84.46
40850;BME280;26571;41.610;25.380;2023-09-18T02:57:47;98776.44;;;20.25;84.72
40850;BME280;26571;41.610;25.380;2023-09-18T03:00:13;98773.13;;;20.23;84.39
40850;BME280;26571;41.610;25.380;2023-09-18T03:02:38;98777.63;;;20.29;83.93
40850;BME280;26571;41.610;25.380;2023-09-18T03:05:04;98772.72;;;20.26;84.00
40850;BME280;26571;41.610;25.380;2023-09-18T03:07:30;98766.16;;;20.22;83.85
40850;BME280;26571;41.610;25.380;2023-09-18T03:09:55;98766.75;;;20.24;84.00
40850;BME280;26571;41.610;25.380;2023-09-18T03:12:21;98775.22;;;20.21;84.15
40850;BME280;26571;41.610;25.380;2023-09-18T03:14:48;98786.19;;;20.12;84.24
40850;BME280;26571;41.610;25.380;2023-09-18T03:17:13;98782.78;;;20.05;84.73
40850;BME280;26571;41.610;25.380;2023-09-18T03:19:39;98786.03;;;20.07;84.74
40850;BME280;26571;41.610;25.380;2023-09-18T03:22:04;98790.88;;;20.17;83.97
40850;BME280;26571;41.610;25.380;2023-09-18T03:24:29;98790.94;;;20.10;84.02
40850;BME280;26571;41.610;25.380;2023-09-18T03:26:55;98789.69;;;20.13;84.34
40850;BME280;26571;41.610;25.380;2023-09-18T03:29:20;98784.31;;;19.95;84.76
40850;BME280;26571;41.610;25.380;2023-09-18T03:31:46;98761.97;;;19.82;85.40
40850;BME280;26571;41.610;25.380;2023-09-18T03:34:11;98784.50;;;19.93;85.87
40850;BME280;26571;41.610;25.380;2023-09-18T03:36:37;98790.28;;;19.90;86.43
40850;BME280;26571;41.610;25.380;2023-09-18T03:39:04;98794.81;;;19.90;86.18
40850;BME280;26571;41.610;25.380;2023-09-18T03:41:30;98787.63;;;19.90;86.17
40850;BME280;26571;41.610;25.380;2023-09-18T03:44:02;98752.66;;;19.67;86.35
40850;BME280;26571;41.610;25.380;2023-09-18T03:46:27;98795.81;;;19.95;84.76
40850;BME280;26571;41.610;25.380;2023-09-18T03:48:53;98797.34;;;19.84;85.28
40850;BME280;26571;41.610;25.380;2023-09-18T03:51:18;98788.47;;;19.84;84.98
40850;BME280;26571;41.610;25.380;2023-09-18T03:53:45;98791.44;;;19.76;85.31
40850;BME280;26571;41.610;25.380;2023-09-18T03:56:10;98769.56;;;19.60;85.24
40850;BME280;26571;41.610;25.380;2023-09-18T03:58:36;98795.91;;;19.82;85.26
40850;BME280;26571;41.610;25.380;2023-09-18T04:01:01;98797.59;;;19.76;85.48
40850;BME280;26571;41.610;25.380;2023-09-18T04:03:27;98805.22;;;19.73;85.77
40850;BME280;26571;41.610;25.380;2023-09-18T04:05:52;98801.06;;;19.77;85.42
40850;BME280;26571;41.610;25.380;2023-09-18T04:08:18;98799.00;;;19.79;85.46
40850;BME280;26571;41.610;25.380;2023-09-18T04:10:43;98806.00;;;19.80;85.43
40850;BME280;26571;41.610;25.380;2023-09-18T04:13:10;98788.31;;;19.79;84.89
40850;BME280;26571;41.610;25.380;2023-09-18T04:15:35;98798.09;;;19.92;84.00
40850;BME280;26571;41.610;25.380;2023-09-18T04:18:04;98800.03;;;19.78;84.94
40850;BME280;26571;41.610;25.380;2023-09-18T04:20:31;98803.50;;;19.85;84.87
40850;BME280;26571;41.610;25.380;2023-09-18T04:25:47;98816.38;;;19.95;84.47
40850;BME280;26571;41.610;25.380;2023-09-18T04:28:13;98812.00;;;20.00;83.94
40850;BME280;26571;41.610;25.380;2023-09-18T04:30:39;98780.47;;;19.84;83.47
40850;BME280;26571;41.610;25.380;2023-09-18T04:33:04;98808.22;;;20.08;83.36
40850;BME280;26571;41.610;25.380;2023-09-18T04:35:30;98800.81;;;20.10;82.35
40850;BME280;26571;41.610;25.380;2023-09-18T04:37:58;98810.63;;;20.16;83.33
40850;BME280;26571;41.610;25.380;2023-09-18T04:40:24;98789.50;;;20.33;83.80
40850;BME280;26571;41.610;25.380;2023-09-18T04:42:50;98797.53;;;21.43;79.87
40850;BME280;26571;41.610;25.380;2023-09-18T04:45:15;98816.47;;;22.84;72.67
40850;BME280;26571;41.610;25.380;2023-09-18T04:47:44;98818.00;;;24.22;64.09
40850;BME280;26571;41.610;25.380;2023-09-18T04:50:09;98819.63;;;25.67;57.62
40850;BME280;26571;41.610;25.380;2023-09-18T04:52:36;98809.53;;;27.01;52.23
40850;BME280;26571;41.610;25.380;2023-09-18T04:55:01;98819.53;;;28.19;47.85
40850;BME280;26571;41.610;25.380;2023-09-18T04:57:27;98817.09;;;29.28;44.58
40850;BME280;26571;41.610;25.380;2023-09-18T04:59:52;98816.94;;;30.32;41.33
40850;BME280;26571;41.610;25.380;2023-09-18T05:02:18;98817.03;;;31.28;39.30
40850;BME280;26571;41.610;25.380;2023-09-18T05:04:43;98823.91;;;32.15;37.26
40850;BME280;26571;41.610;25.380;2023-09-18T05:07:08;98820.59;;;32.92;35.28
40850;BME280;26571;41.610;25.380;2023-09-18T05:09:34;98819.31;;;33.67;33.69
40850;BME280;26571;41.610;25.380;2023-09-18T05:12:00;98805.88;;;34.24;32.42
40850;BME280;26571;41.610;25.380;2023-09-18T05:14:26;98814.94;;;34.95;31.52
40850;BME280;26571;41.610;25.380;2023-09-18T05:16:51;98817.28;;;35.45;30.36
40850;BME280;26571;41.610;25.380;2023-09-18T05:19:17;98807.13;;;35.89;29.57
40850;BME280;26571;41.610;25.380;2023-09-18T05:21:42;98783.38;;;36.28;29.19
40850;BME280;26571;41.610;25.380;2023-09-18T05:24:08;98810.31;;;36.90;27.97
40850;BME280;26571;41.610;25.380;2023-09-18T05:26:34;98804.34;;;37.09;27.61
40850;BME280;26571;41.610;25.380;2023-09-18T05:28:59;98803.56;;;37.38;27.40
40850;BME280;26571;41.610;25.380;2023-09-18T05:31:24;98807.38;;;37.88;26.58
40850;BME280;26571;41.610;25.380;2023-09-18T05:33:50;98805.81;;;38.32;26.29
40850;BME280;26571;41.610;25.380;2023-09-18T05:36:16;98803.53;;;38.59;25.69
40850;BME280;26571;41.610;25.380;2023-09-18T05:38:42;98783.16;;;38.96;25.25
40850;BME280;26571;41.610;25.380;2023-09-18T05:41:08;98813.34;;;39.58;24.37
40850;BME280;26571;41.610;25.380;2023-09-18T05:43:35;98821.78;;;39.77;24.16
40850;BME280;26571;41.610;25.380;2023-09-18T05:46:01;98811.38;;;39.98;23.74
40850;BME280;26571;41.610;25.380;2023-09-18T05:48:26;98805.28;;;40.21;23.46
40850;BME280;26571;41.610;25.380;2023-09-18T05:50:52;98782.25;;;40.29;23.19
40850;BME280;26571;41.610;25.380;2023-09-18T05:53:19;98802.94;;;40.51;22.74
40850;BME280;26571;41.610;25.380;2023-09-18T05:55:45;98787.81;;;40.61;22.48
40850;BME280;26571;41.610;25.380;2023-09-18T05:58:10;98805.03;;;40.26;22.87
40850;BME280;26571;41.610;25.380;2023-09-18T06:00:36;98793.69;;;39.31;23.83
40850;BME280;26571;41.610;25.380;2023-09-18T06:03:02;98807.34;;;39.15;23.69
40850;BME280;26571;41.610;25.380;2023-09-18T06:05:28;98807.72;;;38.77;24.77
40850;BME280;26571;41.610;25.380;2023-09-18T06:07:56;98782.50;;;38.75;24.42
40850;BME280;26571;41.610;25.380;2023-09-18T06:10:21;98802.53;;;39.24;24.04
40850;BME280;26571;41.610;25.380;2023-09-18T06:12:47;98781.41;;;38.67;24.17
40850;BME280;26571;41.610;25.380;2023-09-18T06:15:13;98812.25;;;38.73;24.91
40850;BME280;26571;41.610;25.380;2023-09-18T06:17:41;98813.38;;;38.35;25.12
40850;BME280;26571;41.610;25.380;2023-09-18T06:20:08;98807.09;;;37.39;25.98
40850;BME280;26571;41.610;25.380;2023-09-18T06:22:38;98779.91;;;36.66;26.89
40850;BME280;26571;41.610;25.380;2023-09-18T06:25:08;98800.75;;;36.49;27.09
40850;BME280;26571;41.610;25.380;2023-09-18T06:27:36;98799.59;;;35.86;27.53
40850;BME280;26571;41.610;25.380;2023-09-18T06:30:02;98809.38;;;35.27;28.69
40850;BME280;26571;41.610;25.380;2023-09-18T06:32:28;98815.69;;;34.87;29.64
40850;BME280;26571;41.610;25.380;2023-09-18T06:34:53;98811.66;;;35.51;28.94
40850;BME280;26571;41.610;25.380;2023-09-18T06:37:19;98806.34;;;35.45;28.91
40850;BME280;26571;41.610;25.380;2023-09-18T06:39:45;98809.16;;;34.66;29.63
40850;BME280;26571;41.610;25.380;2023-09-18T06:42:10;98807.50;;;34.25;30.18
40850;BME280;26571;41.610;25.380;2023-09-18T06:44:36;98806.69;;;33.57;31.45
40850;BME280;26571;41.610;25.380;2023-09-18T06:47:01;98803.44;;;33.41;31.86
40850;BME280;26571;41.610;25.380;2023-09-18T06:49:26;98806.97;;;33.56;31.91
40850;BME280;26571;41.610;25.380;2023-09-18T06:51:52;98800.91;;;33.81;32.09
40850;BME280;26571;41.610;25.380;2023-09-18T06:54:18;98795.94;;;33.11;31.90
40850;BME280;26571;41.610;25.380;2023-09-18T06:56:43;98813.59;;;32.12;33.51
40850;BME280;26571;41.610;25.380;2023-09-18T06:59:10;98811.03;;;30.83;35.60
40850;BME280;26571;41.610;25.380;2023-09-18T07:01:37;98814.09;;;29.84;38.15
40850;BME280;26571;41.610;25.380;2023-09-18T07:04:02;98806.16;;;28.79;40.03
40850;BME280;26571;41.610;25.380;2023-09-18T07:06:29;98820.56;;;27.62;42.98
40850;BME280;26571;41.610;25.380;2023-09-18T07:08:55;98819.72;;;26.84;45.08
40850;BME280;26571;41.610;25.380;2023-09-18T07:11:20;98791.34;;;26.39;45.17
40850;BME280;26571;41.610;25.380;2023-09-18T07:13:46;98823.56;;;25.81;47.82
40850;BME280;26571;41.610;25.380;2023-09-18T07:16:11;98817.59;;;25.30;48.89
40850;BME280;26571;41.610;25.380;2023-09-18T07:18:37;98816.41;;;24.99;49.99
40850;BME280;26571;41.610;25.380;2023-09-18T07:21:02;98820.41;;;24.74;50.49
40850;BME280;26571;41.610;25.380;2023-09-18T07:23:28;98816.28;;;24.50;50.80
40850;BME280;26571;41.610;25.380;2023-09-18T07:25:53;98811.56;;;24.40;51.12
40850;BME280;26571;41.610;25.380;2023-09-18T07:28:19;98825.22;;;24.72;51.30
40850;BME280;26571;41.610;25.380;2023-09-18T07:30:45;98817.16;;;25.11;50.03
40850;BME280;26571;41.610;25.380;2023-09-18T07:33:11;98806.28;;;25.55;47.74
40850;BME280;26571;41.610;25.380;2023-09-18T07:35:37;98816.97;;;25.99;46.69
40850;BME280;26571;41.610;25.380;2023-09-18T07:38:03;98809.59;;;26.59;46.18
40850;BME280;26571;41.610;25.380;2023-09-18T07:40:29;98826.22;;;26.88;44.31
40850;BME280;26571;41.610;25.380;2023-09-18T07:42:54;98810.06;;;26.98;42.82
40850;BME280;26571;41.610;25.380;2023-09-18T07:45:19;98816.81;;;26.95;42.04
40850;BME280;26571;41.610;25.380;2023-09-18T07:47:45;98814.34;;;26.89;42.38
40850;BME280;26571;41.610;25.380;2023-09-18T07:50:10;98819.41;;;26.75;42.23
40850;BME280;26571;41.610;25.380;2023-09-18T07:52:36;98786.13;;;26.22;42.26
40850;BME280;26571;41.610;25.380;2023-09-18T07:55:02;98814.91;;;26.43;42.82
40850;BME280;26571;41.610;25.380;2023-09-18T07:57:28;98817.41;;;26.55;42.70
40850;BME280;26571;41.610;25.380;2023-09-18T07:59:55;98800.72;;;26.26;42.44
40850;BME280;26571;41.610;25.380;2023-09-18T08:02:20;98814.28;;;26.36;42.56
40850;BME280;26571;41.610;25.380;2023-09-18T08:04:47;98814.09;;;26.43;42.79
40850;BME280;26571;41.610;25.380;2023-09-18T08:07:12;98817.91;;;26.47;41.83
40850;BME280;26571;41.610;25.380;2023-09-18T08:09:38;98810.38;;;26.54;42.48
40850;BME280;26571;41.610;25.380;2023-09-18T08:12:05;98813.69;;;26.66;42.38
40850;BME280;26571;41.610;25.380;2023-09-18T08:14:30;98797.63;;;26.97;41.65
40850;BME280;26571;41.610;25.380;2023-09-18T08:16:57;98810.09;;;27.03;41.18
40850;BME280;26571;41.610;25.380;2023-09-18T08:19:24;98797.66;;;27.07;41.42
40850;BME280;26571;41.610;25.380;2023-09-18T08:21:53;98799.34;;;27.13;41.78
40850;BME280;26571;41.610;25.380;2023-09-18T08:24:20;98799.97;;;27.36;41.85
40850;BME280;26571;41.610;25.380;2023-09-18T08:26:45;98790.22;;;27.40;40.35
40850;BME280;26571;41.610;25.380;2023-09-18T08:29:11;98783.75;;;27.36;38.42
40850;BME280;26571;41.610;25.380;2023-09-18T08:31:36;98795.06;;;27.27;39.96
40850;BME280;26571;41.610;25.380;2023-09-18T08:34:02;98766.41;;;27.21;40.86
40850;BME280;26571;41.610;25.380;2023-09-18T08:36:27;98794.03;;;27.64;39.61
40850;BME280;26571;41.610;25.380;2023-09-18T08:38:55;98798.97;;;27.82;37.71
40850;BME280;26571;41.610;25.380;2023-09-18T08:41:23;98778.94;;;27.73;38.50
40850;BME280;26571;41.610;25.380;2023-09-18T08:43:53;98786.81;;;27.95;39.19
40850;BME280;26571;41.610;25.380;2023-09-18T08:46:22;98776.78;;;28.16;38.42
40850;BME280;26571;41.610;25.380;2023-09-18T08:48:48;98775.94;;;28.26;38.94
40850;BME280;26571;41.610;25.380;2023-09-18T08:51:15;98778.41;;;28.07;38.24
40850;BME280;26571;41.610;25.380;2023-09-18T08:53:41;98779.50;;;27.91;38.95
40850;BME280;26571;41.610;25.380;2023-09-18T08:56:07;98781.13;;;27.97;39.08
40850;BME280;26571;41.610;25.380;2023-09-18T08:58:36;98776.22;;;27.89;38.02
40850;BME280;26571;41.610;25.380;2023-09-18T09:01:05;98767.53;;;27.51;37.34
40850;BME280;26571;41.610;25.380;2023-09-18T09:03:31;98764.81;;;27.30;37.16
40850;BME280;26571;41.610;25.380;2023-09-18T09:05:59;98768.66;;;26.82;38.50
40850;BME280;26571;41.610;25.380;2023-09-18T09:08:27;98763.25;;;26.35;39.23
40850;BME280;26571;41.610;25.380;2023-09-18T09:10:53;98768.44;;;26.41;38.07
40850;BME280;26571;41.610;25.380;2023-09-18T09:13:19;98767.16;;;26.49;38.70
40850;BME280;26571;41.610;25.380;2023-09-18T09:15:52;98757.84;;;26.82;38.02
40850;BME280;26571;41.610;25.380;2023-09-18T09:18:19;98741.94;;;26.86;38.13
40850;BME280;26571;41.610;25.380;2023-09-18T09:20:58;98750.16;;;27.11;37.45
40850;BME280;26571;41.610;25.380;2023-09-18T09:23:29;98753.44;;;27.34;37.79
40850;BME280;26571;41.610;25.380;2023-09-18T09:26:15;98720.72;;;27.30;38.45
40850;BME280;26571;41.610;25.380;2023-09-18T09:28:42;98731.03;;;27.64;37.39
40850;BME280;26571;41.610;25.380;2023-09-18T09:31:09;98749.97;;;27.89;37.13
40850;BME280;26571;41.610;25.380;2023-09-18T09:33:36;98739.94;;;28.30;34.79
40850;BME280;26571;41.610;25.380;2023-09-18T09:36:04;98713.38;;;28.38;34.83
40850;BME280;26571;41.610;25.380;2023-09-18T09:38:31;98742.09;;;28.39;33.08
40850;BME280;26571;41.610;25.380;2023-09-18T09:40:57;98732.88;;;28.29;33.75
40850;BME280;26571;41.610;25.380;2023-09-18T09:43:25;98735.34;;;28.21;35.45
40850;BME280;26571;41.610;25.380;2023-09-18T09:45:57;98739.38;;;28.39;35.00
40850;BME280;26571;41.610;25.380;2023-09-18T09:48:23;98711.16;;;28.60;33.94
40850;BME280;26571;41.610;25.380;2023-09-18T09:50:50;98723.63;;;28.61;33.71
40850;BME280;26571;41.610;25.380;2023-09-18T09:53:16;98725.25;;;28.57;33.85
40850;BME280;26571;41.610;25.380;2023-09-18T09:55:41;98711.22;;;28.29;33.15
40850;BME280;26571;41.610;25.380;2023-09-18T09:58:08;98708.50;;;28.24;33.86
40850;BME280;26571;41.610;25.380;2023-09-18T10:00:56;98716.63;;;28.50;33.34
40850;BME280;26571;41.610;25.380;2023-09-18T10:03:25;98712.72;;;28.71;33.90
40850;BME280;26571;41.610;25.380;2023-09-18T10:05:52;98724.22;;;28.43;31.85
40850;BME280;26571;41.610;25.380;2023-09-18T10:08:25;98720.19;;;28.09;32.47
40850;BME280;26571;41.610;25.380;2023-09-18T10:10:56;98721.00;;;28.20;31.95
40850;BME280;26571;41.610;25.380;2023-09-18T10:13:30;98708.03;;;28.07;31.92
40850;BME280;26571;41.610;25.380;2023-09-18T10:15:58;98711.78;;;28.21;33.20
40850;BME280;26571;41.610;25.380;2023-09-18T10:20:57;98716.66;;;28.19;31.63
40850;BME280;26571;41.610;25.380;2023-09-18T10:26:22;98710.69;;;28.22;32.35
40850;BME280;26571;41.610;25.380;2023-09-18T10:28:55;98714.81;;;27.89;32.95
40850;BME280;26571;41.610;25.380;2023-09-18T10:31:26;98702.66;;;27.71;33.34
40850;BME280;26571;41.610;25.380;2023-09-18T10:33:52;98704.53;;;27.61;33.32
40850;BME280;26571;41.610;25.380;2023-09-18T10:36:19;98693.44;;;27.57;32.70
40850;BME280;26571;41.610;25.380;2023-09-18T10:38:46;98705.59;;;27.49;33.69
40850;BME280;26571;41.610;25.380;2023-09-18T10:41:16;98687.75;;;27.74;32.96
40850;BME280;26571;41.610;25.380;2023-09-18T10:43:45;98688.28;;;28.01;31.80
40850;BME280;26571;41.610;25.380;2023-09-18T10:46:11;98678.78;;;28.04;32.29
40850;BME280;26571;41.610;25.380;2023-09-18T10:48:41;98694.78;;;27.95;31.84
40850;BME280;26571;41.610;25.380;2023-09-18T10:51:07;98680.19;;;27.55;32.24
40850;BME280;26571;41.610;25.380;2023-09-18T10:53:34;98690.72;;;27.62;32.26
40850;BME280;26571;41.610;25.380;2023-09-18T10:56:01;98687.50;;;27.70;32.37
40850;BME280;26571;41.610;25.380;2023-09-18T10:58:29;98685.84;;;27.69;31.57
40850;BME280;26571;41.610;25.380;2023-09-18T11:00:55;98683.72;;;27.81;31.57
40850;BME280;26571;41.610;25.380;2023-09-18T11:03:23;98671.81;;;27.82;31.61
40850;BME280;26571;41.610;25.380;2023-09-18T11:06:02;98683.94;;;28.05;32.07
40850;BME280;26571;41.610;25.380;2023-09-18T11:08:30;98674.44;;;28.13;31.76
40850;BME280;26571;41.610;25.380;2023-09-18T11:11:06;98668.47;;;28.26;31.96
40850;BME280;26571;41.610;25.380;2023-09-18T11:13:39;98665.75;;;28.37;30.58
40850;BME280;26571;41.610;25.380;2023-09-18T11:16:17;98669.97;;;28.58;31.29
40850;BME280;26571;41.610;25.380;2023-09-18T11:18:47;98671.03;;;28.62;31.31
40850;BME280;26571;41.610;25.380;2023-09-18T11:21:15;98670.56;;;28.55;31.13
40850;BME280;26571;41.610;25.380;2023-09-18T11:23:42;98661.38;;;28.46;31.06
40850;BME280;26571;41.610;25.380;2023-09-18T11:26:09;98653.34;;;28.10;30.99
40850;BME280;26571;41.610;25.380;2023-09-18T11:28:35;98666.94;;;27.95;31.38
40850;BME280;26571;41.610;25.380;2023-09-18T11:31:02;98664.50;;;27.73;31.13
40850;BME280;26571;41.610;25.380;2023-09-18T11:33:39;98660.97;;;27.62;32.27
40850;BME280;26571;41.610;25.380;2023-09-18T11:36:12;98659.34;;;27.61;32.62
40850;BME280;26571;41.610;25.380;2023-09-18T11:38:56;98669.09;;;27.52;32.54
40850;BME280;26571;41.610;25.380;2023-09-18T11:41:24;98652.88;;;27.57;31.50
40850;BME280;26571;41.610;25.380;2023-09-18T11:43:53;98651.50;;;27.60;31.12
40850;BME280;26571;41.610;25.380;2023-09-18T11:46:40;98651.78;;;27.48;31.51
40850;BME280;26571;41.610;25.380;2023-09-18T11:49:10;98640.44;;;27.51;32.43
40850;BME280;26571;41.610;25.380;2023-09-18T11:51:36;98633.66;;;27.48;31.61
40850;BME280;26571;41.610;25.380;2023-09-18T11:54:03;98643.16;;;27.46;31.70
40850;BME280;26571;41.610;25.380;2023-09-18T11:56:31;98635.28;;;27.39;31.49
40850;BME280;26571;41.610;25.380;2023-09-18T11:58:57;98635.03;;;27.30;32.32
40850;BME280;26571;41.610;25.380;2023-09-18T12:01:24;98623.94;;;27.32;31.75
40850;BME280;26571;41.610;25.380;2023-09-18T12:04:03;98621.25;;;27.42;32.50
40850;BME280;26571;41.610;25.380;2023-09-18T12:06:39;98608.50;;;27.58;32.41
40850;BME280;26571;41.610;25.380;2023-09-18T12:09:05;98618.22;;;27.85;32.55
40850;BME280;26571;41.610;25.380;2023-09-18T12:11:33;98616.03;;;27.97;31.79
40850;BME280;26571;41.610;25.380;2023-09-18T12:14:01;98617.69;;;27.88;31.65
40850;BME280;26571;41.610;25.380;2023-09-18T12:16:29;98617.16;;;27.80;32.24
40850;BME280;26571;41.610;25.380;2023-09-18T12:18:55;98616.88;;;27.67;31.48
40850;BME280;26571;41.610;25.380;2023-09-18T12:21:22;98626.34;;;27.69;31.50
40850;BME280;26571;41.610;25.380;2023-09-18T12:23:48;98613.38;;;27.71;31.79
40850;BME280;26571;41.610;25.380;2023-09-18T12:26:14;98609.28;;;27.84;31.93
40850;BME280;26571;41.610;25.380;2023-09-18T12:28:41;98613.59;;;27.95;31.61
40850;BME280;26571;41.610;25.380;2023-09-18T12:31:10;98604.94;;;27.93;31.38
40850;BME280;26571;41.610;25.380;2023-09-18T12:33:36;98596.84;;;27.83;31.83
40850;BME280;26571;41.610;25.380;2023-09-18T12:36:03;98603.66;;;27.75;31.09
40850;BME280;26571;41.610;25.380;2023-09-18T12:38:30;98606.59;;;27.64;31.29
40850;BME280;26571;41.610;25.380;2023-09-18T12:40:56;98598.22;;;27.45;31.42
40850;BME280;26571;41.610;25.380;2023-09-18T12:43:25;98592.84;;;27.29;32.01
40850;BME280;26571;41.610;25.380;2023-09-18T12:45:55;98592.03;;;27.14;32.04
40850;BME280;26571;41.610;25.380;2023-09-18T12:48:21;98566.59;;;26.89;32.46
40850;BME280;26571;41.610;25.380;2023-09-18T12:50:52;98573.91;;;26.99;32.87
40850;BME280;26571;41.610;25.380;2023-09-18T12:53:22;98581.75;;;27.05;32.97
40850;BME280;26571;41.610;25.380;2023-09-18T12:55:48;98587.44;;;27.14;33.13
40850;BME280;26571;41.610;25.380;2023-09-18T12:58:19;98573.94;;;27.19;33.11